createdAt,value
2018-02-08T00:00:14.691Z,17.84
2018-02-08T00:02:40.901Z,17.86
2018-02-08T00:05:07.756Z,17.87
2018-02-08T00:07:33.975Z,17.92
2018-02-08T00:10:00.250Z,17.93
2018-02-08T00:12:26.442Z,17.94
2018-02-08T00:14:52.659Z,17.87
2018-02-08T00:17:18.921Z,17.84
2018-02-08T00:19:45.464Z,17.85
2018-02-08T00:22:23.981Z,17.83
2018-02-08T00:24:50.183Z,17.81
2018-02-08T00:27:16.405Z,17.83
2018-02-08T00:29:42.685Z,17.84
2018-02-08T00:32:08.886Z,17.80
2018-02-08T00:34:35.095Z,17.83
2018-02-08T00:37:01.360Z,17.84
2018-02-08T00:39:27.558Z,17.82
2018-02-08T00:41:53.764Z,17.91
2018-02-08T00:44:20.004Z,17.88
2018-02-08T00:46:46.198Z,17.85
2018-02-08T00:49:12.463Z,17.79
2018-02-08T00:51:38.741Z,17.79
2018-02-08T00:54:04.949Z,17.75
2018-02-08T00:56:31.171Z,17.71
2018-02-08T00:58:57.438Z,17.68
2018-02-08T01:01:23.676Z,17.69
2018-02-08T01:03:49.882Z,17.69
2018-02-08T01:06:16.140Z,17.68
2018-02-08T01:08:42.680Z,17.72
2018-02-08T01:11:09.216Z,17.70
2018-02-08T01:13:35.444Z,17.67
2018-02-08T01:16:01.667Z,17.66
2018-02-08T01:18:28.203Z,17.63
2018-02-08T01:20:54.402Z,17.60
2018-02-08T01:23:20.569Z,17.60
2018-02-08T01:25:46.779Z,17.63
2018-02-08T01:28:12.935Z,17.63
2018-02-08T01:30:39.107Z,17.61
2018-02-08T01:33:05.314Z,17.58
2018-02-08T01:35:31.495Z,17.62
2018-02-08T01:37:58.330Z,17.62
2018-02-08T01:40:24.486Z,17.60
2018-02-08T01:42:50.996Z,17.57
2018-02-08T01:45:17.217Z,17.56
2018-02-08T01:47:43.387Z,17.56
2018-02-08T01:50:09.540Z,17.53
2018-02-08T01:52:35.746Z,17.54
2018-02-08T01:55:01.919Z,17.49
2018-02-08T01:57:28.104Z,17.59
2018-02-08T01:59:54.585Z,17.56
2018-02-08T02:02:20.750Z,17.52
2018-02-08T02:04:47.153Z,17.52
2018-02-08T02:07:13.366Z,17.57
2018-02-08T02:09:39.546Z,17.56
2018-02-08T02:12:05.700Z,17.51
2018-02-08T02:14:31.929Z,17.48
2018-02-08T02:16:58.394Z,17.45
2018-02-08T02:19:24.557Z,17.42
2018-02-08T02:21:51.510Z,17.47
2018-02-08T02:24:17.998Z,17.48
2018-02-08T02:26:44.170Z,17.45
2018-02-08T02:29:10.804Z,17.44
2018-02-08T02:31:36.986Z,17.45
2018-02-08T02:34:03.427Z,17.45
2018-02-08T02:36:29.997Z,17.48
2018-02-08T02:38:56.161Z,17.43
2018-02-08T02:41:22.631Z,17.45
2018-02-08T02:43:49.308Z,17.47
2018-02-08T02:46:15.478Z,17.50
2018-02-08T02:48:41.642Z,17.46
2018-02-08T02:51:07.838Z,17.46
2018-02-08T02:53:34.271Z,17.44
2018-02-08T02:56:00.523Z,17.46
2018-02-08T02:58:26.712Z,17.44
2018-02-08T03:00:53.134Z,17.42
2018-02-08T03:03:19.336Z,17.44
2018-02-08T03:05:45.501Z,17.47
2018-02-08T03:08:11.667Z,17.46
2018-02-08T03:10:38.217Z,17.57
2018-02-08T03:13:04.374Z,17.65
2018-02-08T03:15:30.532Z,17.62
2018-02-08T03:17:56.761Z,17.65
2018-02-08T03:20:22.932Z,17.67
2018-02-08T03:22:49.103Z,17.65
2018-02-08T03:25:15.325Z,17.60
2018-02-08T03:27:41.477Z,17.61
2018-02-08T03:30:07.678Z,17.65
2018-02-08T03:32:33.903Z,17.64
2018-02-08T03:35:00.075Z,17.64
2018-02-08T03:37:26.254Z,17.66
2018-02-08T03:39:52.815Z,17.70
2018-02-08T03:42:19.260Z,17.72
2018-02-08T03:44:45.419Z,17.68
2018-02-08T03:47:11.944Z,17.61
2018-02-08T03:49:38.350Z,17.56
2018-02-08T03:52:04.882Z,17.54
2018-02-08T03:54:31.423Z,17.51
2018-02-08T03:56:57.700Z,17.48
2018-02-08T03:59:24.176Z,17.48
2018-02-08T04:01:50.405Z,17.45
2018-02-08T04:04:16.937Z,17.44
2018-02-08T04:06:43.091Z,17.41
2018-02-08T04:09:09.277Z,17.36
2018-02-08T04:11:35.453Z,17.36
2018-02-08T04:14:01.675Z,17.35
2018-02-08T04:16:27.831Z,17.35
2018-02-08T04:18:53.985Z,17.30
2018-02-08T04:21:20.559Z,17.28
2018-02-08T04:23:46.719Z,17.29
2018-02-08T04:26:12.871Z,17.35
2018-02-08T04:28:39.075Z,17.35
2018-02-08T04:31:05.247Z,17.35
2018-02-08T04:33:31.405Z,17.38
2018-02-08T04:35:57.633Z,17.41
2018-02-08T04:38:35.892Z,17.45
2018-02-08T04:41:14.336Z,17.48
2018-02-08T04:43:52.946Z,17.49
2018-02-08T04:46:31.443Z,17.48
2018-02-08T04:48:57.601Z,17.48
2018-02-08T04:51:23.755Z,17.55
2018-02-08T04:53:49.960Z,17.52
2018-02-08T04:56:16.369Z,17.50
2018-02-08T04:58:42.555Z,17.45
2018-02-08T05:01:09.033Z,17.44
2018-02-08T05:03:35.463Z,17.37
2018-02-08T05:06:01.627Z,17.31
2018-02-08T05:08:27.815Z,17.31
2018-02-08T05:10:53.999Z,17.35
2018-02-08T05:13:20.222Z,17.35
2018-02-08T05:15:46.389Z,17.35
2018-02-08T05:18:12.561Z,17.32
2018-02-08T05:20:38.772Z,17.29
2018-02-08T05:23:04.947Z,17.28
2018-02-08T05:25:31.113Z,17.31
2018-02-08T05:27:57.341Z,17.27
2018-02-08T05:30:23.514Z,17.25
2018-02-08T05:32:49.962Z,17.31
2018-02-08T05:35:16.280Z,17.35
2018-02-08T05:37:42.440Z,17.35
2018-02-08T05:40:08.612Z,17.36
2018-02-08T05:42:35.280Z,17.42
2018-02-08T05:45:01.425Z,17.46
2018-02-08T05:47:27.602Z,17.47
2018-02-08T05:49:55.171Z,17.46
2018-02-08T05:52:21.356Z,17.46
2018-02-08T05:54:47.750Z,17.34
2018-02-08T05:57:14.282Z,17.25
2018-02-08T05:59:40.470Z,17.24
2018-02-08T06:02:06.623Z,17.21
2018-02-08T06:04:32.834Z,17.19
2018-02-08T06:06:59.007Z,17.16
2018-02-08T06:09:25.471Z,17.13
2018-02-08T06:11:52.001Z,17.10
2018-02-08T06:14:18.167Z,17.03
2018-02-08T06:16:44.387Z,16.99
2018-02-08T06:19:10.556Z,17.01
2018-02-08T06:21:36.715Z,17.09
2018-02-08T06:24:03.286Z,17.05
2018-02-08T06:26:29.448Z,17.08
2018-02-08T06:28:55.625Z,17.04
2018-02-08T06:31:22.185Z,16.99
2018-02-08T06:33:48.354Z,16.98
2018-02-08T06:36:14.502Z,17.00
2018-02-08T06:38:40.719Z,17.00
2018-02-08T06:41:06.878Z,17.06
2018-02-08T06:43:33.380Z,17.21
2018-02-08T06:45:59.614Z,17.28
2018-02-08T06:48:25.766Z,17.34
2018-02-08T06:50:52.169Z,17.41
2018-02-08T06:53:18.369Z,17.50
2018-02-08T06:55:44.547Z,17.51
2018-02-08T06:58:11.109Z,17.55
2018-02-08T07:00:37.295Z,17.56
2018-02-08T07:03:03.493Z,17.56
2018-02-08T07:05:29.703Z,17.54
2018-02-08T07:07:56.102Z,17.57
2018-02-08T07:10:22.270Z,17.62
2018-02-08T07:12:48.491Z,17.60
2018-02-08T07:15:14.643Z,17.60
2018-02-08T07:17:40.839Z,17.67
2018-02-08T07:20:10.905Z,17.66
2018-02-08T07:22:37.086Z,17.66
2018-02-08T07:25:03.252Z,17.58
2018-02-08T07:27:29.492Z,17.52
2018-02-08T07:29:56.016Z,17.39
2018-02-08T07:32:22.188Z,17.28
2018-02-08T07:34:48.801Z,17.28
2018-02-08T07:37:15.315Z,17.25
2018-02-08T07:39:41.467Z,17.21
2018-02-08T07:42:07.685Z,17.22
2018-02-08T07:44:33.963Z,17.23
2018-02-08T07:47:00.143Z,17.25
2018-02-08T07:49:26.334Z,17.27
2018-02-08T07:51:52.502Z,17.30
2018-02-08T07:54:18.724Z,17.37
2018-02-08T07:56:45.239Z,17.38
2018-02-08T07:59:11.422Z,17.43
2018-02-08T08:01:37.644Z,17.46
2018-02-08T08:04:04.131Z,17.47
2018-02-08T08:06:30.298Z,17.46
2018-02-08T08:08:56.606Z,17.46
2018-02-08T08:11:22.760Z,17.45
2018-02-08T08:13:49.247Z,17.45
2018-02-08T08:16:15.932Z,17.45
2018-02-08T08:18:42.114Z,17.43
2018-02-08T08:21:08.309Z,17.44
2018-02-08T08:23:34.511Z,17.43
2018-02-08T08:26:01.001Z,17.42
2018-02-08T08:28:27.183Z,17.40
2018-02-08T08:30:53.823Z,17.38
2018-02-08T08:33:19.994Z,17.42
2018-02-08T08:35:46.179Z,17.42
2018-02-08T08:38:13.106Z,17.46
2018-02-08T08:40:39.599Z,17.44
2018-02-08T08:43:05.765Z,17.49
2018-02-08T08:45:32.260Z,17.53
2018-02-08T08:47:58.421Z,17.59
2018-02-08T08:50:24.581Z,17.60
2018-02-08T08:52:51.139Z,17.63
2018-02-08T08:55:17.372Z,17.69
2018-02-08T08:57:43.539Z,17.70
2018-02-08T09:00:10.035Z,17.72
2018-02-08T09:02:36.218Z,17.71
2018-02-08T09:05:02.747Z,17.69
2018-02-08T09:07:28.909Z,17.74
2018-02-08T09:09:55.070Z,17.75
2018-02-08T09:12:21.655Z,17.74
2018-02-08T09:14:47.817Z,17.77
2018-02-08T09:17:14.013Z,17.79
2018-02-08T09:19:40.598Z,17.79
2018-02-08T09:22:06.754Z,17.77
2018-02-08T09:24:33.242Z,17.77
2018-02-08T09:26:59.830Z,17.85
2018-02-08T09:31:57.726Z,17.88
2018-02-08T09:34:23.936Z,17.88
2018-02-08T09:36:50.098Z,17.92
2018-02-08T09:39:16.259Z,17.93
2018-02-08T09:41:43.105Z,17.94
2018-02-08T09:44:09.271Z,17.97
2018-02-08T09:46:35.435Z,18.04
2018-02-08T09:49:01.644Z,18.06
2018-02-08T09:51:28.095Z,18.02
2018-02-08T09:53:54.258Z,18.01
2018-02-08T09:56:20.758Z,18.00
2018-02-08T09:58:46.926Z,18.00
2018-02-08T10:01:13.246Z,17.97
2018-02-08T10:03:39.470Z,18.00
2018-02-08T10:06:05.663Z,18.04
2018-02-08T10:08:31.889Z,18.06
2018-02-08T10:10:58.059Z,18.11
2018-02-08T10:13:24.236Z,18.12
2018-02-08T10:15:50.488Z,18.14
2018-02-08T10:18:16.642Z,18.16
2018-02-08T10:20:42.806Z,18.17
2018-02-08T10:23:09.034Z,18.19
2018-02-08T10:25:35.497Z,18.22
2018-02-08T10:28:01.932Z,18.21
2018-02-08T10:30:28.162Z,18.33
2018-02-08T10:32:54.690Z,18.39
2018-02-08T10:35:21.131Z,18.45
2018-02-08T10:37:47.340Z,18.52
2018-02-08T10:40:13.512Z,18.49
2018-02-08T10:42:39.667Z,18.48
2018-02-08T10:45:06.311Z,18.58
2018-02-08T10:47:32.494Z,18.53
2018-02-08T10:49:58.661Z,18.51
2018-02-08T10:52:24.931Z,18.51
2018-02-08T10:54:51.107Z,18.54
2018-02-08T10:57:17.266Z,18.54
2018-02-08T10:59:43.871Z,18.63
2018-02-08T11:02:10.090Z,18.66
2018-02-08T11:04:36.239Z,18.67
2018-02-08T11:07:02.484Z,18.69
2018-02-08T11:09:28.706Z,18.74
2018-02-08T11:11:55.560Z,18.81
2018-02-08T11:14:21.787Z,18.86
2018-02-08T11:16:47.987Z,18.88
2018-02-08T11:19:14.977Z,18.90
2018-02-08T11:21:41.162Z,18.91
2018-02-08T11:24:07.471Z,18.90
2018-02-08T11:26:33.882Z,18.87
2018-02-08T11:29:00.076Z,18.88
2018-02-08T11:31:26.301Z,18.86
2018-02-08T11:33:52.554Z,18.89
2018-02-08T11:36:18.801Z,18.90
2018-02-08T11:38:44.988Z,18.89
2018-02-08T11:41:12.749Z,18.93
2018-02-08T11:43:38.942Z,18.94
2018-02-08T11:46:05.146Z,18.98
2018-02-08T11:48:31.441Z,18.99
2018-02-08T11:50:57.647Z,18.90
2018-02-08T11:53:23.862Z,18.96
2018-02-08T11:55:50.447Z,18.95
2018-02-08T11:58:16.608Z,18.92
2018-02-08T12:00:42.779Z,18.90
2018-02-08T12:03:09.742Z,18.90
2018-02-08T12:05:36.181Z,18.96
2018-02-08T12:08:02.347Z,18.98
2018-02-08T12:10:29.252Z,19.01
2018-02-08T12:12:55.680Z,19.03
2018-02-08T12:15:21.883Z,19.05
2018-02-08T12:17:48.105Z,19.06
2018-02-08T12:20:14.638Z,19.03
2018-02-08T12:22:40.818Z,19.04
2018-02-08T12:25:07.134Z,19.05
2018-02-08T12:27:33.665Z,19.05
2018-02-08T12:29:59.828Z,19.11
2018-02-08T12:32:26.326Z,19.13
2018-02-08T12:34:52.500Z,19.15
2018-02-08T12:37:18.672Z,19.11
2018-02-08T12:39:44.900Z,19.06
2018-02-08T12:42:11.107Z,19.02
2018-02-08T12:44:37.569Z,19.05
2018-02-08T12:47:03.784Z,19.13
2018-02-08T12:49:30.789Z,19.15
2018-02-08T12:51:56.954Z,19.18
2018-02-08T12:54:23.153Z,19.20
2018-02-08T12:56:49.315Z,19.25
2018-02-08T12:59:16.318Z,19.27
2018-02-08T13:01:42.531Z,19.24
2018-02-08T13:04:08.737Z,19.24
2018-02-08T13:06:34.984Z,19.22
2018-02-08T13:09:01.202Z,19.20
2018-02-08T13:11:27.375Z,19.19
2018-02-08T13:13:53.626Z,19.15
2018-02-08T13:16:19.798Z,19.19
2018-02-08T13:18:46.297Z,19.18
2018-02-08T13:21:12.502Z,19.19
2018-02-08T13:23:38.679Z,19.22
2018-02-08T13:26:05.286Z,19.26
2018-02-08T13:28:31.468Z,19.31
2018-02-08T13:30:57.670Z,19.38
2018-02-08T13:33:23.918Z,19.42
2018-02-08T13:35:50.086Z,19.44
2018-02-08T13:38:16.297Z,19.45
2018-02-08T13:40:45.538Z,19.47
2018-02-08T13:43:11.724Z,19.55
2018-02-08T13:45:37.946Z,19.56
2018-02-08T13:48:10.556Z,19.57
2018-02-08T13:50:43.014Z,19.62
2018-02-08T13:53:15.711Z,19.69
2018-02-08T13:55:48.137Z,19.73
2018-02-08T13:58:20.399Z,19.78
2018-02-08T14:00:51.535Z,19.85
2018-02-08T14:03:17.770Z,19.89
2018-02-08T14:05:44.007Z,19.90
2018-02-08T14:08:10.208Z,19.84
2018-02-08T14:10:36.416Z,19.83
2018-02-08T14:13:02.621Z,19.80
2018-02-08T14:15:28.806Z,19.77
2018-02-08T14:17:55.040Z,19.71
2018-02-08T14:20:21.218Z,19.68
2018-02-08T14:22:47.389Z,19.65
2018-02-08T14:25:14.024Z,19.63
2018-02-08T14:27:40.281Z,19.62
2018-02-08T14:30:06.469Z,19.62
2018-02-08T14:32:32.944Z,19.62
2018-02-08T14:34:59.130Z,19.65
2018-02-08T14:37:25.291Z,19.64
2018-02-08T14:39:52.351Z,19.64
2018-02-08T14:42:18.544Z,19.65
2018-02-08T14:44:51.031Z,19.65
2018-02-08T14:47:17.510Z,19.70
2018-02-08T14:49:43.671Z,19.73
2018-02-08T14:52:10.174Z,19.79
2018-02-08T14:54:36.709Z,19.87
2018-02-08T14:57:02.887Z,19.93
2018-02-08T14:59:29.294Z,20.04
2018-02-08T15:01:55.522Z,20.25
2018-02-08T15:04:21.703Z,20.47
2018-02-08T15:06:47.864Z,20.50
2018-02-08T15:09:14.095Z,20.41
2018-02-08T15:11:40.247Z,20.28
2018-02-08T15:14:06.740Z,20.15
2018-02-08T15:16:33.437Z,20.08
2018-02-08T15:18:59.624Z,20.04
2018-02-08T15:21:25.795Z,20.02
2018-02-08T15:23:52.010Z,20.03
2018-02-08T15:26:18.404Z,20.02
2018-02-08T15:28:44.921Z,19.99
2018-02-08T15:31:11.512Z,19.97
2018-02-08T15:33:37.655Z,19.96
2018-02-08T15:36:03.820Z,19.94
2018-02-08T15:38:30.026Z,19.90
2018-02-08T15:40:56.216Z,19.88
2018-02-08T15:43:22.379Z,19.86
2018-02-08T15:45:48.985Z,19.81
2018-02-08T15:48:15.161Z,19.76
2018-02-08T15:50:41.412Z,19.68
2018-02-08T15:53:07.681Z,19.63
2018-02-08T15:55:33.862Z,19.57
2018-02-08T15:58:00.047Z,19.53
2018-02-08T16:00:26.244Z,19.46
2018-02-08T16:02:52.424Z,19.35
2018-02-08T16:05:18.700Z,19.22
2018-02-08T16:07:44.882Z,19.16
2018-02-08T16:10:11.057Z,19.11
2018-02-08T16:12:37.269Z,19.07
2018-02-08T16:15:03.490Z,18.98
2018-02-08T16:17:29.709Z,18.90
2018-02-08T16:19:55.885Z,18.86
2018-02-08T16:22:22.360Z,18.80
2018-02-08T16:24:48.560Z,18.77
2018-02-08T16:27:14.768Z,18.74
2018-02-08T16:29:41.006Z,18.71
2018-02-08T16:32:07.168Z,18.70
2018-02-08T16:34:33.337Z,18.66
2018-02-08T16:36:59.559Z,18.63
2018-02-08T16:39:26.055Z,18.59
2018-02-08T16:41:52.220Z,18.55
2018-02-08T16:44:18.435Z,18.53
2018-02-08T16:46:44.600Z,18.50
2018-02-08T16:49:10.778Z,18.52
2018-02-08T16:51:37.334Z,18.52
2018-02-08T16:54:03.831Z,18.49
2018-02-08T16:56:29.989Z,18.48
2018-02-08T16:58:56.457Z,18.44
2018-02-08T17:01:22.627Z,18.42
2018-02-08T17:03:48.797Z,18.37
2018-02-08T17:06:15.017Z,18.36
2018-02-08T17:08:41.516Z,18.37
2018-02-08T17:11:07.688Z,18.38
2018-02-08T17:13:33.918Z,18.35
2018-02-08T17:16:00.396Z,18.32
2018-02-08T17:18:26.829Z,18.29
2018-02-08T17:20:53.072Z,18.29
2018-02-08T17:23:19.233Z,18.28
2018-02-08T17:25:45.414Z,18.26
2018-02-08T17:28:11.573Z,18.26
2018-02-08T17:30:37.833Z,18.26
2018-02-08T17:33:04.003Z,18.24
2018-02-08T17:35:30.173Z,18.20
2018-02-08T17:37:56.402Z,18.17
2018-02-08T17:40:22.556Z,18.19
2018-02-08T17:42:48.726Z,18.19
2018-02-08T17:45:15.394Z,18.15
2018-02-08T17:47:41.559Z,18.13
2018-02-08T17:50:08.003Z,18.12
2018-02-08T17:52:34.946Z,18.10
2018-02-08T17:55:01.122Z,18.13
2018-02-08T17:57:27.281Z,18.16
2018-02-08T17:59:53.834Z,18.20
2018-02-08T18:02:20.263Z,18.20
2018-02-08T18:04:46.700Z,18.20
2018-02-08T18:07:12.919Z,18.18
2018-02-08T18:09:39.362Z,18.14
2018-02-08T18:12:05.516Z,18.16
2018-02-08T18:14:31.758Z,18.13
2018-02-08T18:16:57.980Z,18.15
2018-02-08T18:19:24.481Z,18.21
2018-02-08T18:21:50.678Z,18.30
2018-02-08T18:24:17.024Z,18.31
2018-02-08T18:26:43.586Z,18.34
2018-02-08T18:29:10.103Z,18.38
2018-02-08T18:31:36.296Z,18.40
2018-02-08T18:34:03.590Z,18.40
2018-02-08T18:36:29.842Z,18.38
2018-02-08T18:38:56.130Z,18.40
2018-02-08T18:41:22.357Z,18.37
2018-02-08T18:43:48.528Z,18.33
2018-02-08T18:46:14.671Z,18.32
2018-02-08T18:48:41.307Z,18.29
2018-02-08T18:51:07.459Z,18.28
2018-02-08T18:53:33.627Z,18.31
2018-02-08T18:55:59.874Z,18.31
2018-02-08T18:58:26.035Z,18.23
2018-02-08T19:00:52.206Z,18.14
2018-02-08T19:03:19.046Z,18.15
2018-02-08T19:05:45.196Z,18.16
2018-02-08T19:08:11.533Z,18.21
2018-02-08T19:10:37.723Z,18.20
2018-02-08T19:13:03.894Z,18.21
2018-02-08T19:15:30.820Z,18.19
2018-02-08T19:17:56.966Z,18.14
2018-02-08T19:20:23.135Z,18.14
2018-02-08T19:22:49.334Z,18.08
2018-02-08T19:25:15.492Z,18.08
2018-02-08T19:27:42.762Z,18.07
2018-02-08T19:30:08.996Z,18.10
2018-02-08T19:32:35.228Z,18.15
2018-02-08T19:35:01.428Z,18.24
2018-02-08T19:37:27.595Z,18.27
2018-02-08T19:39:53.773Z,18.28
2018-02-08T19:42:19.979Z,18.30
2018-02-08T19:44:46.139Z,18.29
2018-02-08T19:47:12.362Z,18.29
2018-02-08T19:49:38.511Z,18.25
2018-02-08T19:52:04.689Z,18.22
2018-02-08T19:54:31.163Z,18.23
2018-02-08T19:56:57.734Z,18.22
2018-02-08T19:59:24.310Z,18.25
2018-02-08T20:01:50.482Z,18.25
2018-02-08T20:04:16.664Z,18.26
2018-02-08T20:06:42.868Z,18.28
2018-02-08T20:09:09.034Z,18.31
2018-02-08T20:11:35.195Z,18.33
2018-02-08T20:14:02.528Z,18.29
2018-02-08T20:16:28.709Z,18.21
2018-02-08T20:18:54.851Z,18.16
2018-02-08T20:21:21.171Z,18.11
2018-02-08T20:23:47.361Z,18.07
2018-02-08T20:26:13.537Z,18.18
2018-02-08T20:28:40.156Z,18.21
2018-02-08T20:31:09.286Z,18.23
2018-02-08T20:33:35.506Z,18.17
2018-02-08T20:36:02.069Z,18.21
2018-02-08T20:38:28.237Z,18.21
2018-02-08T20:40:54.419Z,18.21
2018-02-08T20:43:26.718Z,18.21
2018-02-08T20:45:52.918Z,18.21
2018-02-08T20:48:19.173Z,18.25
2018-02-08T20:50:45.325Z,18.23
2018-02-08T20:53:11.482Z,18.20
2018-02-08T20:55:37.937Z,18.18
2018-02-08T20:58:04.099Z,18.17
2018-02-08T21:00:30.265Z,18.17
2018-02-08T21:02:56.813Z,18.20
2018-02-08T21:05:22.967Z,18.16
2018-02-08T21:07:49.482Z,18.16
2018-02-08T21:10:15.709Z,18.17
2018-02-08T21:12:41.882Z,18.15
2018-02-08T21:15:08.092Z,18.12
2018-02-08T21:17:35.107Z,18.07
2018-02-08T21:20:01.327Z,18.02
2018-02-08T21:22:28.182Z,17.97
2018-02-08T21:24:54.357Z,18.01
2018-02-08T21:27:20.519Z,18.02
2018-02-08T21:29:47.376Z,18.07
2018-02-08T21:32:13.600Z,18.04
2018-02-08T21:34:39.806Z,18.03
2018-02-08T21:37:06.019Z,18.03
2018-02-08T21:39:32.205Z,18.01
2018-02-08T21:41:58.727Z,18.03
2018-02-08T21:44:24.958Z,18.05
2018-02-08T21:46:51.184Z,18.11
2018-02-08T21:49:17.354Z,18.11
2018-02-08T21:51:44.283Z,18.11
2018-02-08T21:54:10.425Z,18.06
2018-02-08T21:56:36.597Z,18.10
2018-02-08T21:59:02.844Z,18.12
2018-02-08T22:01:29.263Z,18.10
2018-02-08T22:03:55.431Z,18.09
2018-02-08T22:06:21.697Z,18.05
2018-02-08T22:08:47.857Z,17.99
2018-02-08T22:11:14.021Z,18.02
2018-02-08T22:13:40.294Z,18.06
2018-02-08T22:16:06.737Z,18.02
2018-02-08T22:18:32.911Z,18.07
2018-02-08T22:20:59.114Z,18.07
2018-02-08T22:23:25.279Z,18.08
2018-02-08T22:25:51.865Z,18.06
2018-02-08T22:28:18.038Z,18.07
2018-02-08T22:30:44.212Z,18.08
2018-02-08T22:33:10.430Z,18.06
2018-02-08T22:35:36.671Z,18.06
2018-02-08T22:38:02.856Z,18.08
2018-02-08T22:40:29.063Z,18.07
2018-02-08T22:42:55.239Z,18.09
2018-02-08T22:45:21.775Z,18.06
2018-02-08T22:47:47.949Z,18.06
2018-02-08T22:50:14.115Z,18.07
2018-02-08T22:52:40.715Z,18.08
2018-02-08T22:55:06.889Z,18.02
2018-02-08T22:57:33.055Z,18.06
2018-02-08T22:59:59.268Z,18.06
2018-02-08T23:02:25.465Z,18.08
2018-02-08T23:04:51.711Z,18.11
2018-02-08T23:07:17.934Z,18.13
2018-02-08T23:09:44.093Z,18.14
2018-02-08T23:12:10.266Z,18.13
2018-02-08T23:14:36.478Z,18.13
2018-02-08T23:17:02.668Z,18.12
2018-02-08T23:19:28.837Z,18.14
2018-02-08T23:21:55.064Z,18.17
2018-02-08T23:24:21.227Z,18.12
2018-02-08T23:26:47.658Z,18.13
2018-02-08T23:29:14.247Z,18.13
2018-02-08T23:31:40.419Z,18.10
2018-02-08T23:34:06.579Z,18.08
2018-02-08T23:36:32.897Z,18.07
2018-02-08T23:38:59.082Z,18.07
2018-02-08T23:41:25.248Z,18.09
2018-02-08T23:43:51.492Z,18.06
2018-02-08T23:46:17.677Z,18.05
2018-02-08T23:48:43.845Z,18.05
2018-02-08T23:51:10.051Z,18.02
2018-02-08T23:53:36.208Z,18.00
2018-02-08T23:56:02.413Z,17.98
2018-02-08T23:58:28.574Z,18.00
